Crooks, South Dakota
Current Conditions -  °F | °C
As of 6:56 PM on Friday 21 Nov 2014 (Local Time) from KFSD Reporting Station
Overcast Overcast  
Wind Chill: 24°   Ceiling: 16000
Heat Index: 33°   Visibility: 10mi
Dew Point: 27°   Wind: 13mph
Humidity: 78%   Direction: 190°S
Pressure: 29.89"   Gusts: NA
Location:  43.66°N, 96.81°W
Report Text: KFSD 220056Z 19011KT 10SM OVC160 01/M03 A2989 RMK AO2 SLP142 T00061028
Loading
Personal Weather Stations






























Interactive Weather Map New forecast layout! Learn more

10-Day Weather Forecast

Advertisements
Track Severe Weather on mobile